createdAt,value
2018-06-28T00:00:33.719Z,18.62
2018-06-28T00:01:33.778Z,18.63
2018-06-28T00:03:26.768Z,18.65
2018-06-28T00:04:26.834Z,18.56
2018-06-28T00:06:19.837Z,18.71
2018-06-28T00:07:19.892Z,18.50
2018-06-28T00:09:12.896Z,18.56
2018-06-28T00:10:12.951Z,18.56
2018-06-28T00:12:05.944Z,18.53
2018-06-28T00:13:06.010Z,18.56
2018-06-28T00:14:59.521Z,18.53
2018-06-28T00:15:59.572Z,18.49
2018-06-28T00:17:52.563Z,18.56
2018-06-28T00:18:52.631Z,18.50
2018-06-28T00:20:45.628Z,18.43
2018-06-28T00:21:45.686Z,18.44
2018-06-28T00:23:38.678Z,18.35
2018-06-28T00:24:38.759Z,18.44
2018-06-28T00:26:31.746Z,18.33
2018-06-28T00:27:31.803Z,18.43
2018-06-28T00:29:24.805Z,18.43
2018-06-28T00:30:24.863Z,18.34
2018-06-28T00:32:17.862Z,18.29
2018-06-28T00:33:17.922Z,18.33
2018-06-28T00:35:10.922Z,18.38
2018-06-28T00:36:11.012Z,18.25
2018-06-28T00:38:03.973Z,18.33
2018-06-28T00:39:04.038Z,18.34
2018-06-28T00:40:57.038Z,18.26
2018-06-28T00:41:57.094Z,18.33
2018-06-28T00:43:50.088Z,18.29
2018-06-28T00:44:50.150Z,18.29
2018-06-28T00:46:43.152Z,18.31
2018-06-28T00:47:43.210Z,18.22
2018-06-28T00:49:36.203Z,18.23
2018-06-28T00:50:36.266Z,18.18
2018-06-28T00:52:29.266Z,18.20
2018-06-28T00:53:29.324Z,18.20
2018-06-28T00:55:22.330Z,18.13
2018-06-28T00:56:22.380Z,18.19
2018-06-28T00:58:15.373Z,18.20
2018-06-28T00:59:15.438Z,18.16
2018-06-28T01:01:08.437Z,18.11
2018-06-28T01:02:08.494Z,18.05
2018-06-28T01:04:01.485Z,18.08
2018-06-28T01:05:01.550Z,18.08
2018-06-28T01:06:54.550Z,18.11
2018-06-28T01:07:54.606Z,18.04
2018-06-28T01:09:47.598Z,18.08
2018-06-28T01:10:47.663Z,17.97
2018-06-28T01:12:40.663Z,18.00
2018-06-28T01:13:40.721Z,17.90
2018-06-28T01:15:33.710Z,17.90
2018-06-28T01:16:33.776Z,18.03
2018-06-28T01:18:26.775Z,17.97
2018-06-28T01:19:26.832Z,17.92
2018-06-28T01:21:19.823Z,17.94
2018-06-28T01:22:19.887Z,17.94
2018-06-28T01:24:12.887Z,17.95
2018-06-28T01:25:12.944Z,17.95
2018-06-28T01:27:05.944Z,17.97
2018-06-28T01:28:06.001Z,17.85
2018-06-28T01:29:58.994Z,17.83
2018-06-28T01:30:59.062Z,17.82
2018-06-28T01:32:52.059Z,17.78
2018-06-28T01:33:52.116Z,17.74
2018-06-28T01:35:45.109Z,17.79
2018-06-28T01:36:45.171Z,17.74
2018-06-28T01:38:38.170Z,17.76
2018-06-28T01:39:38.229Z,17.71
2018-06-28T01:41:31.223Z,17.76
2018-06-28T01:42:31.284Z,17.68
2018-06-28T01:44:24.284Z,17.60
2018-06-28T01:45:24.338Z,17.68
2018-06-28T01:47:17.339Z,17.65
2018-06-28T01:48:17.398Z,17.65
2018-06-28T01:50:10.388Z,17.54
2018-06-28T01:51:10.452Z,17.60
2018-06-28T01:53:03.466Z,17.51
2018-06-28T01:54:03.508Z,17.51
2018-06-28T01:55:56.508Z,17.57
2018-06-28T01:56:56.565Z,17.54
2018-06-28T01:58:49.568Z,17.54
2018-06-28T01:59:49.622Z,17.52
2018-06-28T02:01:42.614Z,17.51
2018-06-28T02:02:42.681Z,17.54
2018-06-28T02:04:35.680Z,17.44
2018-06-28T02:05:35.738Z,17.39
2018-06-28T02:07:28.730Z,17.36
2018-06-28T02:08:28.793Z,17.36
2018-06-28T02:10:21.794Z,17.46
2018-06-28T02:11:21.852Z,17.39
2018-06-28T02:13:14.843Z,17.38
2018-06-28T02:14:14.909Z,17.45
2018-06-28T02:16:07.914Z,17.41
2018-06-28T02:17:07.969Z,17.34
2018-06-28T02:19:00.973Z,17.38
2018-06-28T02:20:01.027Z,17.31
2018-06-28T02:21:54.018Z,17.29
2018-06-28T02:22:54.082Z,17.29
2018-06-28T02:24:47.078Z,17.22
2018-06-28T02:25:47.141Z,17.29
2018-06-28T02:27:40.136Z,17.26
2018-06-28T02:28:40.200Z,17.19
2018-06-28T02:30:33.200Z,17.15
2018-06-28T02:31:33.258Z,17.15
2018-06-28T02:33:26.250Z,17.14
2018-06-28T02:34:26.312Z,17.16
2018-06-28T02:36:19.314Z,17.05
2018-06-28T02:37:19.373Z,17.04
2018-06-28T02:39:12.365Z,17.01
2018-06-28T02:40:12.427Z,17.02
2018-06-28T02:42:05.424Z,16.91
2018-06-28T02:43:05.483Z,16.94
2018-06-28T02:44:58.483Z,16.90
2018-06-28T02:45:58.540Z,16.90
2018-06-28T02:47:51.537Z,17.01
2018-06-28T02:48:51.601Z,16.94
2018-06-28T02:50:44.601Z,16.86
2018-06-28T02:51:44.654Z,16.96
2018-06-28T02:53:37.655Z,16.99
2018-06-28T02:54:37.717Z,16.99
2018-06-28T02:56:30.714Z,16.78
2018-06-28T02:57:30.770Z,16.99
2018-06-28T02:59:23.762Z,17.02
2018-06-28T03:00:23.824Z,16.87
2018-06-28T03:02:16.824Z,16.87
2018-06-28T03:03:16.887Z,16.86
2018-06-28T03:05:09.881Z,16.79
2018-06-28T03:06:09.942Z,16.79
2018-06-28T03:08:02.946Z,16.89
2018-06-28T03:09:03.001Z,16.74
2018-06-28T03:10:56.001Z,16.74
2018-06-28T03:11:56.056Z,16.74
2018-06-28T03:13:49.048Z,16.68
2018-06-28T03:14:49.113Z,16.72
2018-06-28T03:16:42.114Z,16.74
2018-06-28T03:17:42.173Z,16.71
2018-06-28T03:19:35.163Z,16.64
2018-06-28T03:20:35.227Z,16.61
2018-06-28T03:22:28.224Z,16.78
2018-06-28T03:23:28.283Z,16.72
2018-06-28T03:25:21.282Z,16.79
2018-06-28T03:26:21.348Z,16.66
2018-06-28T03:28:14.342Z,16.78
2018-06-28T03:29:14.400Z,16.64
2018-06-28T03:31:07.488Z,16.61
2018-06-28T03:32:07.459Z,16.66
2018-06-28T03:34:00.457Z,16.69
2018-06-28T03:35:00.516Z,16.65
2018-06-28T03:36:53.514Z,16.72
2018-06-28T03:37:53.653Z,16.75
2018-06-28T03:39:46.564Z,16.72
2018-06-28T03:40:46.630Z,16.75
2018-06-28T03:42:39.622Z,16.69
2018-06-28T03:43:39.679Z,16.66
2018-06-28T03:45:32.679Z,16.75
2018-06-28T03:46:32.744Z,16.78
2018-06-28T03:48:25.745Z,16.69
2018-06-28T03:49:25.803Z,16.66
2018-06-28T03:51:18.793Z,16.71
2018-06-28T03:52:18.857Z,16.69
2018-06-28T03:54:11.858Z,16.72
2018-06-28T03:55:11.913Z,16.76
2018-06-28T03:57:04.911Z,16.68
2018-06-28T03:58:04.966Z,16.75
2018-06-28T03:59:57.964Z,16.76
2018-06-28T04:00:58.033Z,16.74
2018-06-28T04:02:51.026Z,16.74
2018-06-28T04:03:51.085Z,16.72
2018-06-28T04:05:44.083Z,16.83
2018-06-28T04:06:44.148Z,16.84
2018-06-28T04:08:37.140Z,16.90
2018-06-28T04:09:37.200Z,16.90
2018-06-28T04:11:30.193Z,16.99
2018-06-28T04:12:30.252Z,16.89
2018-06-28T04:14:23.765Z,16.83
2018-06-28T04:15:23.815Z,16.96
2018-06-28T04:17:16.824Z,17.01
2018-06-28T04:18:16.867Z,17.02
2018-06-28T04:20:09.861Z,17.06
2018-06-28T04:21:09.925Z,17.08
2018-06-28T04:23:02.920Z,17.06
2018-06-28T04:24:02.979Z,17.15
2018-06-28T04:25:55.974Z,17.16
2018-06-28T04:26:56.037Z,17.15
2018-06-28T04:28:49.043Z,17.22
2018-06-28T04:29:49.102Z,17.23
2018-06-28T04:31:42.090Z,17.22
2018-06-28T04:32:42.160Z,17.24
2018-06-28T04:34:35.153Z,17.30
2018-06-28T04:35:35.213Z,17.27
2018-06-28T04:37:28.203Z,17.29
2018-06-28T04:38:28.266Z,17.30
2018-06-28T04:40:21.264Z,17.41
2018-06-28T04:41:21.321Z,17.49
2018-06-28T04:43:14.324Z,17.54
2018-06-28T04:44:14.374Z,17.54
2018-06-28T04:46:07.375Z,17.59
2018-06-28T04:47:07.442Z,17.65
2018-06-28T04:49:00.435Z,17.80
2018-06-28T04:50:00.494Z,17.78
2018-06-28T04:51:53.490Z,17.94
2018-06-28T04:52:53.556Z,17.87
2018-06-28T04:54:46.551Z,17.87
2018-06-28T04:55:46.608Z,17.82
2018-06-28T04:57:39.618Z,17.87
2018-06-28T04:58:39.672Z,17.87
2018-06-28T05:00:32.669Z,17.92
2018-06-28T05:01:32.726Z,17.86
2018-06-28T05:03:25.718Z,17.90
2018-06-28T05:04:25.781Z,18.07
2018-06-28T05:06:18.782Z,18.11
2018-06-28T05:07:18.837Z,18.04
2018-06-28T05:09:11.841Z,18.13
2018-06-28T05:10:11.897Z,18.07
2018-06-28T05:12:04.888Z,18.23
2018-06-28T05:13:04.952Z,18.18
2018-06-28T05:14:58.458Z,18.31
2018-06-28T05:15:58.514Z,18.26
2018-06-28T05:17:51.507Z,18.35
2018-06-28T05:18:51.570Z,18.34
2018-06-28T05:20:44.574Z,18.34
2018-06-28T05:21:44.625Z,18.31
2018-06-28T05:23:37.617Z,18.35
2018-06-28T05:24:37.682Z,18.35
2018-06-28T05:26:30.677Z,18.52
2018-06-28T05:27:30.739Z,18.52
2018-06-28T05:29:23.740Z,18.66
2018-06-28T05:30:23.798Z,18.65
2018-06-28T05:32:16.788Z,18.78
2018-06-28T05:33:16.853Z,18.80
2018-06-28T05:35:09.852Z,18.80
2018-06-28T05:36:09.908Z,18.90
2018-06-28T05:38:02.907Z,18.96
2018-06-28T05:39:02.967Z,19.04
2018-06-28T05:40:55.962Z,19.07
2018-06-28T05:41:56.022Z,18.93
2018-06-28T05:43:49.016Z,18.98
2018-06-28T05:44:49.085Z,18.99
2018-06-28T05:46:42.085Z,19.12
2018-06-28T05:47:42.224Z,19.12
2018-06-28T05:49:35.136Z,19.12
2018-06-28T05:50:35.200Z,19.16
2018-06-28T05:52:28.200Z,19.26
2018-06-28T05:53:28.256Z,19.22
2018-06-28T05:55:21.259Z,19.26
2018-06-28T05:56:21.311Z,19.39
2018-06-28T05:58:14.306Z,19.44
2018-06-28T05:59:14.369Z,19.58
2018-06-28T06:01:07.370Z,19.88
2018-06-28T06:02:07.429Z,19.94
2018-06-28T06:04:00.421Z,20.02
2018-06-28T06:05:00.486Z,20.06
2018-06-28T06:06:53.487Z,20.11
2018-06-28T06:07:53.546Z,20.32
2018-06-28T06:09:46.539Z,20.47
2018-06-28T06:10:46.605Z,20.67
2018-06-28T06:12:39.601Z,21.22
2018-06-28T06:13:39.660Z,21.40
2018-06-28T06:15:32.653Z,21.76
2018-06-28T06:16:32.719Z,22.22
2018-06-28T06:18:25.722Z,22.81
2018-06-28T06:19:25.777Z,23.36
2018-06-28T06:21:18.779Z,24.96
2018-06-28T06:22:18.838Z,25.55
2018-06-28T06:24:11.832Z,26.99
2018-06-28T06:25:11.895Z,27.29
2018-06-28T06:27:04.897Z,28.10
2018-06-28T06:28:04.956Z,28.41
2018-06-28T06:29:57.952Z,28.69
2018-06-28T06:30:58.118Z,29.16
2018-06-28T06:32:51.023Z,29.69
2018-06-28T06:33:51.086Z,29.60
2018-06-28T06:35:44.092Z,30.03
2018-06-28T06:36:44.163Z,30.02
2018-06-28T06:38:37.168Z,30.68
2018-06-28T06:39:37.232Z,31.10
2018-06-28T06:41:30.237Z,31.34
2018-06-28T06:42:30.307Z,31.89
2018-06-28T06:44:23.320Z,32.46
2018-06-28T06:45:23.389Z,32.60
2018-06-28T06:47:16.402Z,32.83
2018-06-28T06:48:16.468Z,33.27
2018-06-28T06:50:09.478Z,32.83
2018-06-28T06:51:09.552Z,32.58
2018-06-28T06:53:02.567Z,33.31
2018-06-28T06:54:02.635Z,34.01
2018-06-28T06:55:55.652Z,34.36
2018-06-28T06:56:55.725Z,34.25
2018-06-28T06:58:48.746Z,34.66
2018-06-28T06:59:48.822Z,34.78
2018-06-28T07:01:41.829Z,35.68
2018-06-28T07:02:41.904Z,35.98
2018-06-28T07:04:34.927Z,36.31
2018-06-28T07:05:34.997Z,36.92
2018-06-28T07:07:28.017Z,37.03
2018-06-28T07:08:28.091Z,37.06
2018-06-28T07:10:21.212Z,36.96
2018-06-28T07:11:21.184Z,37.02
2018-06-28T07:13:14.207Z,37.17
2018-06-28T07:14:14.277Z,37.39
2018-06-28T07:16:07.445Z,37.78
2018-06-28T07:17:07.377Z,38.14
2018-06-28T07:19:00.400Z,37.72
2018-06-28T07:20:00.472Z,37.65
2018-06-28T07:21:53.520Z,38.04
2018-06-28T07:22:53.760Z,38.42
2018-06-28T07:24:46.625Z,38.57
2018-06-28T07:25:46.698Z,38.67
2018-06-28T07:27:39.719Z,38.84
2018-06-28T07:28:39.835Z,38.12
2018-06-28T07:30:32.828Z,37.49
2018-06-28T07:31:32.900Z,38.21
2018-06-28T07:33:25.932Z,38.09
2018-06-28T07:34:26.001Z,38.45
2018-06-28T07:36:19.021Z,38.39
2018-06-28T07:37:19.104Z,39.06
2018-06-28T07:39:12.133Z,38.91
2018-06-28T07:40:12.207Z,39.00
2018-06-28T07:42:05.231Z,39.36
2018-06-28T07:43:05.314Z,39.09
2018-06-28T07:44:58.346Z,38.60
2018-06-28T07:45:58.417Z,38.14
2018-06-28T07:47:51.443Z,38.96
2018-06-28T07:48:51.525Z,38.97
2018-06-28T07:50:44.557Z,39.17
2018-06-28T07:51:44.633Z,39.78
2018-06-28T07:53:37.664Z,39.43
2018-06-28T07:54:37.748Z,39.40
2018-06-28T07:56:30.782Z,39.19
2018-06-28T07:57:30.856Z,39.52
2018-06-28T07:59:23.894Z,39.62
2018-06-28T08:00:23.970Z,39.40
2018-06-28T08:02:17.001Z,39.97
2018-06-28T08:03:17.079Z,39.09
2018-06-28T08:05:10.113Z,39.55
2018-06-28T08:06:10.190Z,40.23
2018-06-28T08:08:03.220Z,40.61
2018-06-28T08:09:03.304Z,40.85
2018-06-28T08:10:56.337Z,41.22
2018-06-28T08:11:56.414Z,41.00
2018-06-28T08:13:49.449Z,40.73
2018-06-28T08:14:49.523Z,41.10
2018-06-28T08:16:42.564Z,42.02
2018-06-28T08:17:42.642Z,42.54
2018-06-28T08:19:35.680Z,40.05
2018-06-28T08:20:35.763Z,38.42
2018-06-28T08:22:28.802Z,39.12
2018-06-28T08:23:28.884Z,39.58
2018-06-28T08:25:21.924Z,40.62
2018-06-28T08:26:21.994Z,40.08
2018-06-28T08:28:15.035Z,39.80
2018-06-28T08:29:15.115Z,38.92
2018-06-28T08:31:08.152Z,40.08
2018-06-28T08:32:08.236Z,40.31
2018-06-28T08:34:01.275Z,39.99
2018-06-28T08:35:01.353Z,40.96
2018-06-28T08:36:54.393Z,41.25
2018-06-28T08:37:54.472Z,41.26
2018-06-28T08:39:47.507Z,39.52
2018-06-28T08:40:47.592Z,39.92
2018-06-28T08:42:40.640Z,40.58
2018-06-28T08:43:40.719Z,40.87
2018-06-28T08:45:33.768Z,41.00
2018-06-28T08:46:33.837Z,41.18
2018-06-28T08:48:26.883Z,40.68
2018-06-28T08:49:26.970Z,40.30
2018-06-28T08:51:20.012Z,40.18
2018-06-28T08:52:20.091Z,40.16
2018-06-28T08:54:13.129Z,40.63
2018-06-28T08:55:13.216Z,41.09
2018-06-28T08:57:06.264Z,41.15
2018-06-28T08:58:06.380Z,40.65
2018-06-28T08:59:59.389Z,39.34
2018-06-28T09:00:59.476Z,38.67
2018-06-28T09:02:52.528Z,38.49
2018-06-28T09:03:52.614Z,38.89
2018-06-28T09:05:45.681Z,37.86
2018-06-28T09:06:45.732Z,37.78
2018-06-28T09:08:38.773Z,37.87
2018-06-28T09:09:38.857Z,38.17
2018-06-28T09:11:31.902Z,36.77
2018-06-28T09:12:31.982Z,34.36
2018-06-28T09:14:25.524Z,35.78
2018-06-28T09:15:25.675Z,36.57
2018-06-28T09:17:18.649Z,36.45
2018-06-28T09:18:18.731Z,36.36
2018-06-28T09:20:11.759Z,37.48
2018-06-28T09:21:11.843Z,36.52
2018-06-28T09:23:04.925Z,35.53
2018-06-28T09:24:04.957Z,35.26
2018-06-28T09:25:57.987Z,35.31
2018-06-28T09:26:58.071Z,35.52
2018-06-28T09:28:51.110Z,36.24
2018-06-28T09:29:51.179Z,36.61
2018-06-28T09:31:44.232Z,36.59
2018-06-28T09:32:44.294Z,36.51
2018-06-28T09:34:37.331Z,36.16
2018-06-28T09:35:37.414Z,34.70
2018-06-28T09:37:30.452Z,32.95
2018-06-28T09:38:30.534Z,32.46
2018-06-28T09:40:23.559Z,32.23
2018-06-28T09:41:23.638Z,32.03
2018-06-28T09:43:16.668Z,31.84
2018-06-28T09:44:16.741Z,31.71
2018-06-28T09:46:09.769Z,31.49
2018-06-28T09:47:09.850Z,31.31
2018-06-28T09:49:02.872Z,30.39
2018-06-28T09:50:02.946Z,30.08
2018-06-28T09:51:55.965Z,30.09
2018-06-28T09:52:56.040Z,30.10
2018-06-28T09:54:49.104Z,29.65
2018-06-28T09:55:49.138Z,29.65
2018-06-28T09:57:42.175Z,29.72
2018-06-28T09:58:42.226Z,29.75
2018-06-28T10:00:35.377Z,29.97
2018-06-28T10:01:35.321Z,29.91
2018-06-28T10:03:28.351Z,29.87
2018-06-28T10:04:28.419Z,29.97
2018-06-28T10:06:21.435Z,30.13
2018-06-28T10:07:21.507Z,29.97
2018-06-28T10:09:14.537Z,30.16
2018-06-28T10:10:14.643Z,30.05
2018-06-28T10:12:07.620Z,29.42
2018-06-28T10:13:07.693Z,29.35
2018-06-28T10:15:01.221Z,29.35
2018-06-28T10:16:01.287Z,29.35
2018-06-28T10:17:54.299Z,29.63
2018-06-28T10:18:54.372Z,29.47
2018-06-28T10:20:47.446Z,29.90
2018-06-28T10:21:47.458Z,29.76
2018-06-28T10:23:40.476Z,29.57
2018-06-28T10:24:40.573Z,29.49
2018-06-28T10:26:33.552Z,29.59
2018-06-28T10:27:33.625Z,29.54
2018-06-28T10:29:26.646Z,29.65
2018-06-28T10:30:26.717Z,29.32
2018-06-28T10:32:19.727Z,29.54
2018-06-28T10:33:19.814Z,29.51
2018-06-28T10:35:12.818Z,29.12
2018-06-28T10:36:12.886Z,29.35
2018-06-28T10:38:05.895Z,29.34
2018-06-28T10:39:05.969Z,29.34
2018-06-28T10:40:59.063Z,29.38
2018-06-28T10:41:59.050Z,29.34
2018-06-28T10:43:52.062Z,29.49
2018-06-28T10:44:52.135Z,29.49
2018-06-28T10:46:45.155Z,29.38
2018-06-28T10:47:45.217Z,29.54
2018-06-28T10:49:38.231Z,29.08
2018-06-28T10:50:38.299Z,29.23
2018-06-28T10:52:31.313Z,29.08
2018-06-28T10:53:31.379Z,29.35
2018-06-28T10:55:24.401Z,29.19
2018-06-28T10:56:24.475Z,28.98
2018-06-28T10:58:17.477Z,28.98
2018-06-28T10:59:17.544Z,28.89
2018-06-28T11:01:10.554Z,28.86
2018-06-28T11:02:10.629Z,28.89
2018-06-28T11:04:03.645Z,29.04
2018-06-28T11:05:03.718Z,29.04
2018-06-28T11:06:56.723Z,29.10
2018-06-28T11:07:56.792Z,29.10
2018-06-28T11:09:49.802Z,29.01
2018-06-28T11:10:49.872Z,29.07
2018-06-28T11:12:42.894Z,29.04
2018-06-28T11:13:42.951Z,29.26
2018-06-28T11:15:36.526Z,29.42
2018-06-28T11:16:36.623Z,29.29
2018-06-28T11:18:29.557Z,28.79
2018-06-28T11:19:29.620Z,28.62
2018-06-28T11:21:22.636Z,28.84
2018-06-28T11:22:22.703Z,28.88
2018-06-28T11:24:15.714Z,28.82
2018-06-28T11:25:15.784Z,28.93
2018-06-28T11:27:08.797Z,28.76
2018-06-28T11:28:08.863Z,28.62
2018-06-28T11:30:01.872Z,28.66
2018-06-28T11:31:01.942Z,28.67
2018-06-28T11:32:54.957Z,28.67
2018-06-28T11:33:55.023Z,28.84
2018-06-28T11:35:48.052Z,28.67
2018-06-28T11:36:48.106Z,28.57
2018-06-28T11:38:41.111Z,28.38
2018-06-28T11:39:41.181Z,28.62
2018-06-28T11:41:34.199Z,28.85
2018-06-28T11:42:34.267Z,28.86
2018-06-28T11:44:27.275Z,28.84
2018-06-28T11:45:27.345Z,28.75
2018-06-28T11:47:20.360Z,28.82
2018-06-28T11:48:20.425Z,28.78
2018-06-28T11:50:13.441Z,28.84
2018-06-28T11:51:13.508Z,28.86
2018-06-28T11:53:06.522Z,28.81
2018-06-28T11:54:06.589Z,28.81
2018-06-28T11:55:59.597Z,28.81
2018-06-28T11:56:59.668Z,29.10
2018-06-28T11:58:52.686Z,29.04
2018-06-28T11:59:52.746Z,29.14
2018-06-28T12:01:45.755Z,29.12
2018-06-28T12:02:45.822Z,29.17
2018-06-28T12:04:38.828Z,29.14
2018-06-28T12:05:38.956Z,29.19
2018-06-28T12:07:31.915Z,29.29
2018-06-28T12:08:31.982Z,29.20
2018-06-28T12:10:24.988Z,29.05
2018-06-28T12:11:25.060Z,29.12
2018-06-28T12:13:18.074Z,29.04
2018-06-28T12:14:18.140Z,28.93
2018-06-28T12:16:11.152Z,29.01
2018-06-28T12:17:11.221Z,29.07
2018-06-28T12:19:04.232Z,29.05
2018-06-28T12:20:04.298Z,29.13
2018-06-28T12:21:57.313Z,29.07
2018-06-28T12:22:57.377Z,29.02
2018-06-28T12:24:50.392Z,29.01
2018-06-28T12:25:50.455Z,29.10
2018-06-28T12:27:43.468Z,28.94
2018-06-28T12:28:43.533Z,28.93
2018-06-28T12:30:36.539Z,29.13
2018-06-28T12:31:36.616Z,29.02
2018-06-28T12:33:29.622Z,29.17
2018-06-28T12:34:29.694Z,29.31
2018-06-28T12:36:22.693Z,29.54
2018-06-28T12:37:22.765Z,29.57
2018-06-28T12:39:15.821Z,29.34
2018-06-28T12:40:15.844Z,29.27
2018-06-28T12:42:08.859Z,29.16
2018-06-28T12:43:08.938Z,29.17
2018-06-28T12:45:01.957Z,29.02
2018-06-28T12:46:02.008Z,29.12
2018-06-28T12:47:55.033Z,29.08
2018-06-28T12:48:55.085Z,28.97
2018-06-28T12:50:48.094Z,28.88
2018-06-28T12:51:48.168Z,28.84
2018-06-28T12:53:41.181Z,28.78
2018-06-28T12:54:41.247Z,28.79
2018-06-28T12:56:34.258Z,28.98
2018-06-28T12:57:34.330Z,29.05
2018-06-28T12:59:27.344Z,29.04
2018-06-28T13:00:27.408Z,29.16
2018-06-28T13:02:20.410Z,29.16
2018-06-28T13:03:20.483Z,29.24
2018-06-28T13:05:13.496Z,29.17
2018-06-28T13:06:13.560Z,29.13
2018-06-28T13:08:06.579Z,28.98
2018-06-28T13:09:06.640Z,28.84
2018-06-28T13:11:01.146Z,28.85
2018-06-28T13:12:01.477Z,28.97
2018-06-28T13:13:55.741Z,29.19
2018-06-28T13:14:55.807Z,29.31
2018-06-28T13:16:48.811Z,29.45
2018-06-28T13:17:48.882Z,29.53
2018-06-28T13:19:42.400Z,29.41
2018-06-28T13:20:42.462Z,29.35
2018-06-28T13:22:35.467Z,29.12
2018-06-28T13:23:35.547Z,29.07
2018-06-28T13:25:28.552Z,29.14
2018-06-28T13:26:28.617Z,29.08
2018-06-28T13:28:21.616Z,29.23
2018-06-28T13:29:21.690Z,29.22
2018-06-28T13:31:14.701Z,29.35
2018-06-28T13:32:14.768Z,29.34
2018-06-28T13:34:07.795Z,29.31
2018-06-28T13:35:07.840Z,29.32
2018-06-28T13:37:00.856Z,29.20
2018-06-28T13:38:00.931Z,29.04
2018-06-28T13:39:53.946Z,29.02
2018-06-28T13:40:54.148Z,28.97
2018-06-28T13:42:47.018Z,28.98
2018-06-28T13:43:47.086Z,29.01
2018-06-28T13:45:40.103Z,28.98
2018-06-28T13:46:40.163Z,29.14
2018-06-28T13:48:33.170Z,29.22
2018-06-28T13:49:33.243Z,29.34
2018-06-28T13:51:26.254Z,29.59
2018-06-28T13:52:26.318Z,29.65
2018-06-28T13:54:19.328Z,29.56
2018-06-28T13:55:19.398Z,29.59
2018-06-28T13:57:12.410Z,29.32
2018-06-28T13:58:12.473Z,29.24
2018-06-28T14:00:05.488Z,28.94
2018-06-28T14:01:05.548Z,28.89
2018-06-28T14:02:58.570Z,28.59
2018-06-28T14:03:58.627Z,28.56
2018-06-28T14:05:51.643Z,28.48
2018-06-28T14:06:51.708Z,28.47
2018-06-28T14:08:44.712Z,28.56
2018-06-28T14:09:44.784Z,28.62
2018-06-28T14:11:37.794Z,28.70
2018-06-28T14:12:37.860Z,28.82
2018-06-28T14:14:30.866Z,28.96
2018-06-28T14:15:30.941Z,29.02
2018-06-28T14:17:23.948Z,29.02
2018-06-28T14:18:24.010Z,28.98
2018-06-28T14:20:17.012Z,29.07
2018-06-28T14:21:17.089Z,28.97
2018-06-28T14:23:10.098Z,29.12
2018-06-28T14:24:10.164Z,29.07
2018-06-28T14:26:03.174Z,29.13
2018-06-28T14:27:03.239Z,29.22
2018-06-28T14:28:56.241Z,29.22
2018-06-28T14:29:56.316Z,29.13
2018-06-28T14:31:49.325Z,29.19
2018-06-28T14:32:49.400Z,29.22
2018-06-28T14:34:42.404Z,29.24
2018-06-28T14:35:42.474Z,29.19
2018-06-28T14:37:35.489Z,29.12
2018-06-28T14:38:35.554Z,29.16
2018-06-28T14:40:28.564Z,29.05
2018-06-28T14:41:28.636Z,29.04
2018-06-28T14:43:21.645Z,28.98
2018-06-28T14:44:21.706Z,29.08
2018-06-28T14:46:14.716Z,28.98
2018-06-28T14:47:14.847Z,28.85
2018-06-28T14:49:07.805Z,28.82
2018-06-28T14:50:07.874Z,28.82
2018-06-28T14:52:00.877Z,28.89
2018-06-28T14:53:00.947Z,28.97
2018-06-28T14:54:53.973Z,29.10
2018-06-28T14:55:54.024Z,29.17
2018-06-28T14:57:47.038Z,29.14
2018-06-28T14:58:47.102Z,28.98
2018-06-28T15:00:40.109Z,29.04
2018-06-28T15:01:40.182Z,29.07
2018-06-28T15:03:33.193Z,28.88
2018-06-28T15:04:33.260Z,28.81
2018-06-28T15:06:26.266Z,28.76
2018-06-28T15:07:26.382Z,28.67
2018-06-28T15:09:19.349Z,28.63
2018-06-28T15:10:19.416Z,28.66
2018-06-28T15:12:12.417Z,28.82
2018-06-28T15:13:12.491Z,28.85
2018-06-28T15:15:05.503Z,29.07
2018-06-28T15:16:05.605Z,29.16
2018-06-28T15:17:58.595Z,29.19
2018-06-28T15:18:58.641Z,29.23
2018-06-28T15:20:51.670Z,29.42
2018-06-28T15:21:51.728Z,29.44
2018-06-28T15:23:45.259Z,29.47
2018-06-28T15:24:46.617Z,29.38
2018-06-28T15:26:38.317Z,29.24
2018-06-28T15:27:38.445Z,29.22
2018-06-28T15:29:31.403Z,29.24
2018-06-28T15:30:31.464Z,29.16
2018-06-28T15:32:24.473Z,29.10
2018-06-28T15:33:24.613Z,28.98
2018-06-28T15:35:17.555Z,28.88
2018-06-28T15:36:17.621Z,29.04
2018-06-28T15:38:10.635Z,28.97
2018-06-28T15:39:10.698Z,28.96
2018-06-28T15:41:03.710Z,28.89
2018-06-28T15:42:03.776Z,28.79
2018-06-28T15:43:56.805Z,28.75
2018-06-28T15:44:56.849Z,28.86
2018-06-28T15:46:49.859Z,28.88
2018-06-28T15:47:49.923Z,29.04
2018-06-28T15:49:42.937Z,29.04
2018-06-28T15:50:43.007Z,29.07
2018-06-28T15:52:36.022Z,29.12
2018-06-28T15:53:36.084Z,28.97
2018-06-28T15:55:29.095Z,28.79
2018-06-28T15:56:29.161Z,28.84
2018-06-28T15:58:22.676Z,28.72
2018-06-28T15:59:22.742Z,28.64
2018-06-28T16:01:15.756Z,28.49
2018-06-28T16:02:15.822Z,28.45
2018-06-28T16:04:08.829Z,28.52
2018-06-28T16:05:08.897Z,28.60
2018-06-28T16:07:01.901Z,28.67
2018-06-28T16:08:02.167Z,28.64
2018-06-28T16:09:54.985Z,28.57
2018-06-28T16:10:55.048Z,28.62
2018-06-28T16:12:48.076Z,28.57
2018-06-28T16:13:48.131Z,28.54
2018-06-28T16:15:41.147Z,28.70
2018-06-28T16:16:41.212Z,28.70
2018-06-28T16:18:34.219Z,28.57
2018-06-28T16:19:34.285Z,28.52
2018-06-28T16:21:27.296Z,28.49
2018-06-28T16:22:27.361Z,28.47
2018-06-28T16:24:20.376Z,28.52
2018-06-28T16:25:20.433Z,28.45
2018-06-28T16:27:13.447Z,28.38
2018-06-28T16:28:13.512Z,28.37
2018-06-28T16:30:06.528Z,28.35
2018-06-28T16:31:06.589Z,28.23
2018-06-28T16:32:59.598Z,28.23
2018-06-28T16:33:59.718Z,28.32
2018-06-28T16:35:52.678Z,28.32
2018-06-28T16:36:52.750Z,28.27
2018-06-28T16:38:45.756Z,28.33
2018-06-28T16:39:45.829Z,28.26
2018-06-28T16:41:38.832Z,28.32
2018-06-28T16:42:38.899Z,28.45
2018-06-28T16:44:31.905Z,28.42
2018-06-28T16:45:31.979Z,28.41
2018-06-28T16:47:24.991Z,28.35
2018-06-28T16:48:25.055Z,28.32
2018-06-28T16:50:18.079Z,28.30
2018-06-28T16:51:18.129Z,28.25
2018-06-28T16:53:11.183Z,28.15
2018-06-28T16:54:11.227Z,28.14
2018-06-28T16:56:04.227Z,28.19
2018-06-28T16:57:04.284Z,28.19
2018-06-28T16:58:57.801Z,28.14
2018-06-28T16:59:57.866Z,28.07
2018-06-28T17:01:50.876Z,28.17
2018-06-28T17:02:50.946Z,28.07
2018-06-28T17:04:43.945Z,28.04
2018-06-28T17:05:44.017Z,28.08
2018-06-28T17:07:37.068Z,28.15
2018-06-28T17:08:37.090Z,28.12
2018-06-28T17:10:30.097Z,28.08
2018-06-28T17:11:30.164Z,28.01
2018-06-28T17:13:23.171Z,28.04
2018-06-28T17:14:23.239Z,27.96
2018-06-28T17:16:16.255Z,28.01
2018-06-28T17:17:16.394Z,27.89
2018-06-28T17:19:09.341Z,27.93
2018-06-28T17:20:09.472Z,27.92
2018-06-28T17:22:02.413Z,27.90
2018-06-28T17:23:02.478Z,27.95
2018-06-28T17:24:55.488Z,27.82
2018-06-28T17:25:55.555Z,27.82
2018-06-28T17:27:48.567Z,27.83
2018-06-28T17:28:48.633Z,27.75
2018-06-28T17:30:41.633Z,27.75
2018-06-28T17:31:41.750Z,27.63
2018-06-28T17:33:34.715Z,27.73
2018-06-28T17:34:34.777Z,27.64
2018-06-28T17:36:27.796Z,27.67
2018-06-28T17:37:27.882Z,27.64
2018-06-28T17:39:20.858Z,27.51
2018-06-28T17:40:20.954Z,27.45
2018-06-28T17:42:13.932Z,27.33
2018-06-28T17:43:13.998Z,27.30
2018-06-28T17:45:06.995Z,27.17
2018-06-28T17:46:07.070Z,27.20
2018-06-28T17:48:00.078Z,27.12
2018-06-28T17:49:00.142Z,27.12
2018-06-28T17:50:53.145Z,27.02
2018-06-28T17:51:53.216Z,27.08
2018-06-28T17:53:46.223Z,27.07
2018-06-28T17:54:46.288Z,27.10
2018-06-28T17:56:39.289Z,27.00
2018-06-28T17:57:39.361Z,26.95
2018-06-28T17:59:32.369Z,26.97
2018-06-28T18:00:32.437Z,27.05
2018-06-28T18:02:25.441Z,26.97
2018-06-28T18:03:25.508Z,27.00
2018-06-28T18:05:18.506Z,26.93
2018-06-28T18:06:18.577Z,26.97
2018-06-28T18:08:11.583Z,26.90
2018-06-28T18:09:11.754Z,26.99
2018-06-28T18:11:04.652Z,26.95
2018-06-28T18:12:04.726Z,26.93
2018-06-28T18:13:57.731Z,26.96
2018-06-28T18:14:57.791Z,26.84
2018-06-28T18:16:51.803Z,26.77
2018-06-28T18:17:51.871Z,26.85
2018-06-28T18:19:44.877Z,26.70
2018-06-28T18:20:44.956Z,26.71
2018-06-28T18:22:37.950Z,26.71
2018-06-28T18:23:38.012Z,26.71
2018-06-28T18:25:31.039Z,26.58
2018-06-28T18:26:31.164Z,26.56
2018-06-28T18:28:24.624Z,26.62
2018-06-28T18:29:24.683Z,26.58
2018-06-28T18:31:17.690Z,26.56
2018-06-28T18:32:17.755Z,26.52
2018-06-28T18:34:10.792Z,26.47